Time;durP1;ratioP1;P1;durP2;ratioP2;P2;SDS_P1;SDS_P2;PMS_P1;PMS_P2;Temp;Humidity;BMP_temperature;BMP_pressure;BME280_temperature;BME280_humidity;BME280_pressure;Samples;Min_cycle;Max_cycle;Signal;HPM_P1;HPM_P2
2022/10/25 00:04:20;;;;;;;1.23;0.97;;;16.20;49.90;;;;;;10390188;28;20234;-70
2022/10/25 00:09:23;;;;;;;2.00;1.30;;;16.20;50.00;;;;;;10391362;28;20240;-70
2022/10/25 00:14:28;;;;;;;1.77;1.67;;;16.20;49.90;;;;;;10397696;28;20805;-70
2022/10/25 00:19:31;;;;;;;1.67;1.30;;;16.10;49.70;;;;;;10394737;28;20280;-70
2022/10/25 00:24:34;;;;;;;1.20;1.10;;;16.00;49.80;;;;;;10395867;28;20606;-70
2022/10/25 00:29:39;;;;;;;1.27;1.10;;;15.90;49.70;;;;;;10391115;28;20234;-70
2022/10/25 00:34:42;;;;;;;0.80;0.80;;;15.90;49.60;;;;;;10390358;28;20239;-70
2022/10/25 00:39:46;;;;;;;0.80;0.80;;;15.80;49.60;;;;;;10396396;28;20229;-70
2022/10/25 00:44:53;;;;;;;0.80;0.80;;;15.80;49.50;;;;;;10397520;28;20225;-70
2022/10/25 00:50:00;;;;;;;0.80;0.80;;;15.70;49.30;;;;;;10397375;28;20292;-70
2022/10/25 00:55:06;;;;;;;0.80;0.80;;;15.70;49.30;;;;;;10401821;28;20230;-70
2022/10/25 01:00:11;;;;;;;0.90;0.90;;;15.60;49.30;;;;;;10398416;28;20237;-70
2022/10/25 01:05:16;;;;;;;0.80;0.80;;;15.60;49.40;;;;;;10391390;28;20676;-70
2022/10/25 01:10:19;;;;;;;2.07;1.20;;;15.60;49.40;;;;;;10391551;28;20238;-70
2022/10/25 01:15:33;;;;;;;1.03;0.93;;;15.70;49.40;;;;;;10390563;28;20226;-70
2022/10/25 01:21:10;;;;;;;1.20;1.00;;;15.50;48.60;;;;;;10392088;28;20233;-70
2022/10/25 01:26:44;;;;;;;1.37;0.90;;;15.60;48.30;;;;;;10351604;28;20752;-73
2022/10/25 01:31:53;;;;;;;1.03;1.00;;;15.60;48.30;;;;;;10386949;28;20242;-73
2022/10/25 01:37:07;;;;;;;1.27;1.17;;;15.60;48.30;;;;;;10382465;28;20291;-73
2022/10/25 01:42:19;;;;;;;1.23;1.10;;;15.50;48.10;;;;;;10386741;28;20673;-73
2022/10/25 01:47:26;;;;;;;1.27;1.00;;;15.50;47.90;;;;;;10388142;28;20253;-73
2022/10/25 01:52:29;;;;;;;4.53;1.17;;;15.40;48.00;;;;;;10384753;28;20754;-73
2022/10/25 01:57:54;;;;;;;1.43;1.17;;;15.40;48.10;;;;;;10380454;28;20634;-73
2022/10/25 02:03:13;;;;;;;1.13;1.00;;;15.30;47.60;;;;;;10384352;28;20239;-73
2022/10/25 02:08:28;;;;;;;1.07;1.03;;;15.30;47.70;;;;;;10379608;28;20245;-73
2022/10/25 02:13:38;;;;;;;1.43;1.27;;;15.20;47.50;;;;;;10384829;28;20228;-73
2022/10/25 02:18:48;;;;;;;1.23;1.10;;;15.20;47.60;;;;;;10385260;28;20238;-73
2022/10/25 02:23:53;;;;;;;1.83;1.30;;;15.10;47.30;;;;;;10386261;28;20252;-73
2022/10/25 02:28:57;;;;;;;1.40;1.30;;;15.10;47.70;;;;;;10382473;28;20249;-73
2022/10/25 02:34:02;;;;;;;1.20;1.20;;;15.00;47.80;;;;;;10385615;28;20303;-73
2022/10/25 02:39:07;;;;;;;1.60;1.20;;;15.00;47.70;;;;;;10382275;28;20237;-73
2022/10/25 02:44:10;;;;;;;1.60;1.50;;;14.90;47.50;;;;;;10383334;28;20221;-73
2022/10/25 02:49:15;;;;;;;1.30;1.20;;;14.90;47.60;;;;;;10383095;28;20333;-73
2022/10/25 02:54:18;;;;;;;3.10;1.80;;;14.80;47.50;;;;;;10381114;28;20237;-73
2022/10/25 02:59:21;;;;;;;2.87;1.90;;;14.80;47.70;;;;;;10381140;28;21820;-73
2022/10/25 03:04:26;;;;;;;2.53;1.73;;;14.70;47.50;;;;;;10385590;28;20232;-73
2022/10/25 03:09:29;;;;;;;1.67;1.57;;;14.70;47.40;;;;;;10382707;28;20292;-73
2022/10/25 03:14:32;;;;;;;2.20;1.50;;;14.60;47.40;;;;;;10380418;28;20238;-73
2022/10/25 03:19:36;;;;;;;3.37;1.87;;;14.60;47.70;;;;;;10378281;28;20236;-73
2022/10/25 03:24:39;;;;;;;1.70;1.60;;;14.50;47.60;;;;;;10384050;28;20229;-73
2022/10/25 03:29:43;;;;;;;1.63;1.53;;;14.50;48.00;;;;;;10384928;28;20241;-73
2022/10/25 03:34:47;;;;;;;2.40;1.80;;;14.40;47.80;;;;;;10379919;28;20234;-73
2022/10/25 03:39:50;;;;;;;2.33;1.80;;;14.40;47.50;;;;;;10384180;28;20230;-73
2022/10/25 03:44:53;;;;;;;1.80;1.70;;;14.40;47.50;;;;;;10380252;28;20225;-73
2022/10/25 03:49:58;;;;;;;1.80;1.70;;;14.30;47.50;;;;;;10382721;28;20750;-73
2022/10/25 03:55:01;;;;;;;3.30;1.73;;;14.30;47.40;;;;;;10382279;28;20237;-73
2022/10/25 04:00:05;;;;;;;1.90;1.70;;;14.20;47.60;;;;;;10377918;28;20234;-73
2022/10/25 04:05:10;;;;;;;1.90;1.80;;;14.20;47.90;;;;;;10383382;28;20241;-73
2022/10/25 04:10:13;;;;;;;3.03;1.90;;;14.10;48.10;;;;;;10383410;28;20604;-73
2022/10/25 04:15:16;;;;;;;3.33;2.17;;;14.10;48.20;;;;;;10388756;28;20661;-70
2022/10/25 04:20:21;;;;;;;2.03;1.73;;;14.10;48.40;;;;;;10391746;28;20238;-70
2022/10/25 04:25:26;;;;;;;3.70;2.20;;;14.10;48.50;;;;;;10381551;28;20238;-73
2022/10/25 04:30:29;;;;;;;2.00;1.90;;;14.10;48.60;;;;;;10376351;28;20684;-73
2022/10/25 04:35:39;;;;;;;2.20;2.00;;;14.10;48.70;;;;;;10378121;28;20234;-73
2022/10/25 04:40:42;;;;;;;2.30;2.10;;;14.10;48.90;;;;;;10379947;28;20241;-73
2022/10/25 04:45:46;;;;;;;3.27;1.90;;;14.10;48.90;;;;;;10377926;28;20226;-73
2022/10/25 04:50:50;;;;;;;2.43;1.80;;;14.20;49.10;;;;;;10383342;28;20286;-73
2022/10/25 04:55:57;;;;;;;2.17;2.03;;;14.20;49.10;;;;;;10382920;28;20237;-73
2022/10/25 05:01:02;;;;;;;2.37;1.90;;;14.20;49.10;;;;;;10382463;28;20233;-73
2022/10/25 05:06:08;;;;;;;2.20;1.90;;;14.20;48.90;;;;;;10385988;28;20242;-73
2022/10/25 05:11:13;;;;;;;2.30;1.97;;;14.20;49.00;;;;;;10390791;28;20931;-70
2022/10/25 05:16:20;;;;;;;2.20;2.10;;;14.20;48.90;;;;;;10385405;28;20249;-70
2022/10/25 05:21:28;;;;;;;5.77;2.00;;;14.20;48.90;;;;;;10391578;28;20237;-71
2022/10/25 05:26:32;;;;;;;3.47;2.50;;;14.20;50.40;;;;;;10391423;28;20242;-70
2022/10/25 05:31:37;;;;;;;3.37;1.90;;;14.20;49.60;;;;;;10390136;28;20227;-71
2022/10/25 05:36:42;;;;;;;3.23;1.87;;;14.20;48.90;;;;;;10391326;28;20630;-70
2022/10/25 05:41:45;;;;;;;2.43;2.23;;;14.20;48.70;;;;;;10390907;28;20230;-70
2022/10/25 05:46:49;;;;;;;2.40;2.30;;;14.10;48.20;;;;;;10389921;28;20295;-71
2022/10/25 05:51:53;;;;;;;5.00;4.07;;;14.10;48.30;;;;;;10392151;28;20695;-70
2022/10/25 05:56:56;;;;;;;3.40;3.10;;;14.00;48.20;;;;;;10387689;28;20245;-70
2022/10/25 06:02:00;;;;;;;2.70;2.50;;;14.00;48.50;;;;;;10382455;28;20711;-70
2022/10/25 06:07:04;;;;;;;3.97;2.77;;;14.00;48.60;;;;;;10379907;28;20697;-70
2022/10/25 06:12:07;;;;;;;5.97;2.70;;;14.00;48.60;;;;;;10381293;28;20229;-70
2022/10/25 06:17:12;;;;;;;2.80;2.23;;;14.00;48.70;;;;;;10385080;28;20348;-70
2022/10/25 06:22:17;;;;;;;2.90;2.37;;;14.00;48.80;;;;;;10382156;28;20312;-70
2022/10/25 06:27:20;;;;;;;2.43;1.87;;;14.00;48.60;;;;;;10383263;28;20243;-70
2022/10/25 06:32:23;;;;;;;3.30;2.20;;;14.00;48.90;;;;;;10383055;28;20238;-70
2022/10/25 06:37:27;;;;;;;2.10;2.00;;;13.90;48.70;;;;;;10380443;28;20646;-70
2022/10/25 06:42:30;;;;;;;2.23;2.03;;;14.00;48.80;;;;;;10383237;28;20707;-70
2022/10/25 06:47:33;;;;;;;2.17;2.03;;;13.90;48.80;;;;;;10381105;28;20225;-70
2022/10/25 06:52:38;;;;;;;3.07;1.93;;;13.90;48.80;;;;;;10383465;28;20312;-70
2022/10/25 06:57:41;;;;;;;2.63;2.27;;;14.00;49.30;;;;;;10376854;28;20233;-70
2022/10/25 07:02:44;;;;;;;2.93;2.03;;;14.00;49.40;;;;;;10378733;28;20562;-70
2022/10/25 07:07:49;;;;;;;3.90;2.20;;;14.00;49.40;;;;;;10381244;28;20238;-70
2022/10/25 07:12:52;;;;;;;3.57;1.93;;;14.00;49.80;;;;;;10377305;28;20230;-70
2022/10/25 07:17:55;;;;;;;1.80;1.70;;;14.00;49.90;;;;;;10382206;28;20582;-70
2022/10/25 07:23:00;;;;;;;2.30;2.10;;;14.10;50.10;;;;;;10380878;28;20244;-70
2022/10/25 07:28:07;;;;;;;3.83;1.93;;;14.20;50.80;;;;;;10381192;28;20736;-70
2022/10/25 07:33:10;;;;;;;2.83;1.57;;;14.20;50.80;;;;;;10379854;28;20225;-70
2022/10/25 07:38:14;;;;;;;4.40;1.70;;;14.30;51.40;;;;;;10383102;28;20271;-70
2022/10/25 07:43:18;;;;;;;1.70;1.60;;;14.50;52.20;;;;;;10381023;28;20237;-70
2022/10/25 07:48:21;;;;;;;2.57;1.90;;;14.60;52.50;;;;;;10374744;28;20646;-70
2022/10/25 07:53:26;;;;;;;2.47;1.60;;;14.80;53.30;;;;;;10386973;28;20245;-70
2022/10/25 07:58:29;;;;;;;1.67;1.40;;;15.00;54.10;;;;;;10384310;28;20238;-70
2022/10/25 08:03:33;;;;;;;1.23;1.13;;;15.30;53.70;;;;;;10380370;28;20238;-70
2022/10/25 08:08:37;;;;;;;1.00;1.00;;;15.60;53.80;;;;;;10379862;28;20360;-70
2022/10/25 08:13:40;;;;;;;1.47;1.20;;;15.90;53.90;;;;;;10381960;28;20252;-70
2022/10/25 08:18:43;;;;;;;1.23;1.17;;;16.10;53.40;;;;;;10379052;28;20279;-70
2022/10/25 08:23:48;;;;;;;1.23;1.10;;;16.30;52.90;;;;;;10386035;28;20222;-70
2022/10/25 08:28:51;;;;;;;1.37;1.00;;;16.60;52.60;;;;;;10388174;28;20229;-70
2022/10/25 08:33:54;;;;;;;1.67;1.30;;;16.80;52.70;;;;;;10390080;28;20234;-70
2022/10/25 08:38:59;;;;;;;1.30;1.20;;;17.00;52.60;;;;;;10386421;28;20234;-70
2022/10/25 08:44:14;;;;;;;2.40;1.20;;;17.20;52.20;;;;;;10385368;28;20260;-70
2022/10/25 08:49:24;;;;;;;2.73;1.20;;;17.40;51.70;;;;;;10388640;28;20240;-69
2022/10/25 08:54:32;;;;;;;1.47;1.30;;;17.60;51.50;;;;;;10383106;28;20233;-69
2022/10/25 08:59:39;;;;;;;2.13;1.20;;;17.80;50.90;;;;;;10388639;28;20242;-69
2022/10/25 09:04:42;;;;;;;1.97;1.23;;;17.90;50.50;;;;;;10384934;28;21677;-69
2022/10/25 09:09:52;;;;;;;1.50;1.20;;;18.10;50.40;;;;;;10389573;28;20253;-69
2022/10/25 09:15:02;;;;;;;1.17;1.00;;;18.30;50.00;;;;;;10388933;28;20657;-69
2022/10/25 09:20:07;;;;;;;1.57;1.20;;;18.40;49.40;;;;;;10385862;28;20602;-69
2022/10/25 09:25:20;;;;;;;3.03;1.40;;;18.60;49.60;;;;;;10385800;28;20700;-69
2022/10/25 09:30:24;;;;;;;1.97;1.20;;;18.70;49.50;;;;;;10383838;28;20292;-69
2022/10/25 09:35:31;;;;;;;2.80;1.40;;;18.90;50.40;;;;;;10386939;28;20233;-69
2022/10/25 09:40:43;;;;;;;2.00;1.20;;;19.10;49.70;;;;;;10390887;28;21028;-69
2022/10/25 09:45:53;;;;;;;1.23;1.13;;;19.20;48.00;;;;;;10388548;28;20286;-69
2022/10/25 09:51:04;;;;;;;1.63;1.20;;;19.40;48.20;;;;;;10381830;28;20291;-69
2022/10/25 09:56:08;;;;;;;2.07;1.30;;;19.50;47.70;;;;;;10381164;28;20222;-70
2022/10/25 10:01:16;;;;;;;1.73;1.20;;;19.60;48.30;;;;;;10379046;28;20768;-70
2022/10/25 10:06:23;;;;;;;1.53;1.10;;;19.70;48.50;;;;;;10385264;28;20326;-70
2022/10/25 10:11:29;;;;;;;3.93;1.30;;;19.80;47.60;;;;;;10381489;28;20226;-70
2022/10/25 10:16:35;;;;;;;1.27;1.17;;;19.90;47.20;;;;;;10368768;28;20241;-70
2022/10/25 10:21:42;;;;;;;1.67;1.00;;;20.00;48.00;;;;;;10382711;28;20237;-70
2022/10/25 10:26:50;;;;;;;1.40;1.30;;;20.10;47.00;;;;;;10376322;28;20242;-70
2022/10/25 10:31:56;;;;;;;2.80;1.30;;;20.20;47.00;;;;;;10385601;28;20696;-70
2022/10/25 10:37:12;;;;;;;1.43;1.10;;;20.30;47.10;;;;;;10421204;23;20237;-74
2022/10/25 10:42:18;;;;;;;2.20;1.20;;;20.30;45.80;;;;;;10405439;28;20233;-74
2022/10/25 10:47:22;;;;;;;1.90;1.17;;;20.30;46.60;;;;;;10405556;28;20600;-74
2022/10/25 10:52:30;;;;;;;1.90;1.20;;;20.40;47.20;;;;;;10425730;28;20255;-74
2022/10/25 10:57:35;;;;;;;1.17;0.90;;;20.40;46.30;;;;;;10408225;28;20287;-74
2022/10/25 11:02:40;;;;;;;1.83;1.30;;;20.50;46.10;;;;;;10405802;28;20233;-74
2022/10/25 11:07:44;;;;;;;2.37;1.10;;;20.60;45.70;;;;;;10405548;28;20241;-74
2022/10/25 11:13:06;;;;;;;1.73;0.90;;;20.70;45.50;;;;;;10412149;28;20237;-74
2022/10/25 11:18:12;;;;;;;1.13;0.90;;;20.70;44.60;;;;;;10403992;28;20284;-75
2022/10/25 11:23:23;;;;;;;0.90;0.90;;;20.70;44.80;;;;;;10397524;28;20623;-76
2022/10/25 11:28:43;;;;;;;1.20;1.07;;;20.80;44.30;;;;;;10395926;28;20237;-75
2022/10/25 11:34:02;;;;;;;1.80;0.90;;;20.90;44.00;;;;;;10390648;28;20233;-75
2022/10/25 11:39:30;;;;;;;1.93;1.10;;;20.90;43.90;;;;;;10399828;28;20257;-76
2022/10/25 11:45:13;;;;;;;0.87;0.83;;;21.00;43.60;;;;;;10400538;28;20245;-76
2022/10/25 11:50:26;;;;;;;1.43;0.90;;;21.10;44.10;;;;;;10419950;28;20241;-76
2022/10/25 11:55:36;;;;;;;1.73;1.00;;;21.20;42.70;;;;;;10404846;28;20233;-76
2022/10/25 12:00:50;;;;;;;1.90;1.20;;;21.20;42.10;;;;;;10441852;28;20236;-75
2022/10/25 12:06:06;;;;;;;1.67;0.97;;;21.10;42.20;;;;;;10454215;28;20753;-75
2022/10/25 12:11:13;;;;;;;1.90;1.00;;;21.10;41.60;;;;;;10453799;28;20232;-76
2022/10/25 12:16:24;;;;;;;1.60;0.90;;;21.00;42.40;;;;;;10452664;28;20336;-76
2022/10/25 12:21:32;;;;;;;2.10;0.80;;;21.00;42.60;;;;;;10453423;28;20228;-76
2022/10/25 12:26:39;;;;;;;1.43;0.73;;;20.90;42.00;;;;;;10452648;28;20237;-77
2022/10/25 12:31:48;;;;;;;2.00;0.80;;;21.00;42.40;;;;;;10413240;28;20240;-77
2022/10/25 12:36:55;;;;;;;1.47;1.03;;;21.00;41.30;;;;;;10427304;28;20241;-76
2022/10/25 12:42:02;;;;;;;1.73;0.90;;;21.10;42.10;;;;;;10435736;28;20880;-76
2022/10/25 12:47:31;;;;;;;3.03;0.90;;;21.10;41.00;;;;;;10425517;28;20230;-77
2022/10/25 12:52:36;;;;;;;1.23;0.70;;;21.10;40.30;;;;;;10410665;28;20241;-77
2022/10/25 12:57:49;;;;;;;1.53;0.70;;;21.10;41.30;;;;;;10410711;28;20279;-77
2022/10/25 13:03:35;;;;;;;1.13;0.80;;;21.10;40.40;;;;;;10411042;28;20233;-76
2022/10/25 13:08:40;;;;;;;1.27;0.80;;;21.10;39.90;;;;;;10409145;28;20601;-77
2022/10/25 13:13:49;;;;;;;0.70;0.70;;;21.10;40.90;;;;;;10409992;28;20230;-76
2022/10/25 13:19:25;;;;;;;0.80;0.70;;;21.10;39.50;;;;;;10409477;28;20242;-77
2022/10/25 13:24:49;;;;;;;0.83;0.70;;;21.10;38.40;;;;;;10409020;28;20249;-77
2022/10/25 13:30:01;;;;;;;1.57;0.67;;;21.20;39.80;;;;;;10406374;28;20233;-76
2022/10/25 13:35:50;;;;;;;1.03;0.70;;;21.20;39.10;;;;;;10383104;28;20770;-74
2022/10/25 13:41:12;;;;;;;0.87;0.70;;;21.20;39.50;;;;;;10392176;28;20229;-74
2022/10/25 13:46:16;;;;;;;1.37;0.80;;;21.30;39.20;;;;;;10367040;28;20230;-75
2022/10/25 13:51:21;;;;;;;1.87;1.00;;;21.20;40.30;;;;;;10366652;28;20804;-75
2022/10/25 13:56:36;;;;;;;4.00;1.10;;;21.30;40.40;;;;;;10367913;28;20242;-75
2022/10/25 14:01:57;;;;;;;7.13;1.50;;;21.30;37.90;;;;;;10379947;28;20229;-74
2022/10/25 14:07:34;;;;;;;2.30;0.80;;;21.30;38.00;;;;;;10403470;28;20247;-75
2022/10/25 14:12:42;;;;;;;2.83;0.97;;;21.30;39.00;;;;;;10406862;28;20611;-75
2022/10/25 14:17:47;;;;;;;1.03;0.80;;;21.30;38.20;;;;;;10407018;28;20237;-76
2022/10/25 14:22:53;;;;;;;1.97;0.70;;;21.30;39.30;;;;;;10408185;28;20233;-75
2022/10/25 14:28:13;;;;;;;1.73;0.90;;;21.30;38.20;;;;;;10408121;28;20280;-75
2022/10/25 14:33:26;;;;;;;1.57;0.70;;;21.30;37.90;;;;;;10408437;28;20280;-75
2022/10/25 14:38:29;;;;;;;1.37;0.90;;;21.30;37.60;;;;;;10407745;28;20237;-75
2022/10/25 14:43:36;;;;;;;1.50;0.90;;;21.30;39.20;;;;;;10407371;28;20233;-75
2022/10/25 14:48:39;;;;;;;1.27;0.80;;;21.40;38.20;;;;;;10407270;28;20234;-75
2022/10/25 14:53:50;;;;;;;1.03;0.70;;;21.40;38.90;;;;;;10407688;28;20285;-75
2022/10/25 14:58:56;;;;;;;1.83;0.80;;;21.30;37.60;;;;;;10406791;28;20283;-75
2022/10/25 15:04:00;;;;;;;1.20;0.80;;;21.30;38.40;;;;;;10398859;28;20723;-76
2022/10/25 15:09:05;;;;;;;1.50;0.70;;;21.30;39.20;;;;;;10406535;28;20595;-76
2022/10/25 15:14:30;;;;;;;0.80;0.80;;;21.30;38.60;;;;;;10406211;28;20699;-75
2022/10/25 15:19:59;;;;;;;1.07;0.97;;;21.20;38.20;;;;;;10430961;28;20295;-76
2022/10/25 15:25:15;;;;;;;1.10;0.80;;;21.20;38.70;;;;;;10406847;28;20233;-75
2022/10/25 15:30:35;;;;;;;1.07;0.80;;;21.10;39.40;;;;;;10406138;28;20287;-75
2022/10/25 15:35:47;;;;;;;1.50;0.97;;;21.10;38.30;;;;;;10405763;28;20244;-75
2022/10/25 15:40:51;;;;;;;1.67;0.70;;;21.00;38.80;;;;;;10406192;28;20238;-75
2022/10/25 15:45:54;;;;;;;3.77;0.90;;;21.00;39.50;;;;;;10406200;28;20237;-76
2022/10/25 15:50:58;;;;;;;3.43;1.43;;;20.90;39.60;;;;;;10405826;28;20233;-76
2022/10/25 15:56:02;;;;;;;3.30;1.40;;;20.80;39.50;;;;;;10404972;28;20230;-75
2022/10/25 16:01:06;;;;;;;3.23;1.50;;;20.70;39.80;;;;;;10405205;28;20237;-74
2022/10/25 16:06:12;;;;;;;3.10;2.10;;;20.60;40.90;;;;;;10413429;28;20244;-75
2022/10/25 16:11:18;;;;;;;3.80;1.93;;;20.50;39.80;;;;;;10404985;28;20294;-75
2022/10/25 16:16:25;;;;;;;2.57;2.27;;;20.40;39.90;;;;;;10419071;28;20607;-75
2022/10/25 16:21:45;;;;;;;3.47;2.20;;;20.30;39.50;;;;;;10406277;28;20233;-75
2022/10/25 16:26:50;;;;;;;4.00;1.90;;;20.20;40.50;;;;;;10404884;28;20230;-76
2022/10/25 16:31:53;;;;;;;4.07;2.47;;;20.00;40.00;;;;;;10404683;28;20234;-75
2022/10/25 16:36:58;;;;;;;2.30;2.17;;;20.00;39.90;;;;;;10404747;28;20260;-76
2022/10/25 16:42:01;;;;;;;6.63;3.10;;;19.80;39.90;;;;;;10404771;28;20313;-75
2022/10/25 16:47:05;;;;;;;3.70;3.33;;;19.70;39.90;;;;;;10411357;28;20248;-75
2022/10/25 16:52:09;;;;;;;6.17;4.40;;;19.60;40.00;;;;;;10411386;28;20723;-75
2022/10/25 16:57:13;;;;;;;7.33;5.57;;;19.40;39.80;;;;;;10411105;28;20658;-75
2022/10/25 17:02:19;;;;;;;9.47;7.37;;;19.30;40.00;;;;;;10411644;28;20241;-77
2022/10/25 17:07:23;;;;;;;11.80;9.47;;;19.20;39.90;;;;;;10411191;28;20268;-77
2022/10/25 17:12:26;;;;;;;13.17;9.90;;;19.10;40.00;;;;;;10411199;28;20260;-76
2022/10/25 17:17:30;;;;;;;8.10;7.30;;;19.00;40.00;;;;;;10410900;28;20288;-76
2022/10/25 17:22:34;;;;;;;12.03;9.37;;;18.90;40.10;;;;;;10412783;28;20222;-77
2022/10/25 17:27:40;;;;;;;10.77;9.77;;;18.70;39.80;;;;;;10409205;28;20585;-76
2022/10/25 17:32:43;;;;;;;8.67;7.63;;;18.60;39.90;;;;;;10404672;28;20420;-76
2022/10/25 17:37:48;;;;;;;5.27;4.70;;;18.50;40.10;;;;;;10394882;28;20825;-76
2022/10/25 17:42:52;;;;;;;12.60;11.40;;;18.40;40.90;;;;;;10394221;28;20230;-75
2022/10/25 17:48:00;;;;;;;6.97;6.23;;;18.20;40.10;;;;;;10398280;28;20233;-75
2022/10/25 17:53:05;;;;;;;4.60;3.60;;;18.10;40.10;;;;;;10398884;28;20230;-75
2022/10/25 17:58:08;;;;;;;4.20;3.10;;;18.10;40.20;;;;;;10391938;28;20237;-75
2022/10/25 18:03:12;;;;;;;4.40;3.70;;;18.00;40.30;;;;;;10398372;28;20240;-74
2022/10/25 18:08:17;;;;;;;4.10;3.40;;;17.90;40.30;;;;;;10400007;28;20721;-74
2022/10/25 18:13:22;;;;;;;3.50;3.00;;;17.80;40.20;;;;;;10399537;28;20240;-74
2022/10/25 18:18:25;;;;;;;4.60;4.20;;;17.70;40.10;;;;;;10400756;28;20652;-74
2022/10/25 18:23:33;;;;;;;9.00;8.20;;;17.60;40.20;;;;;;10400946;28;20229;-74
2022/10/25 18:28:37;;;;;;;8.70;7.87;;;17.50;40.20;;;;;;10399663;28;20303;-74
2022/10/25 18:33:41;;;;;;;8.47;7.77;;;17.50;40.50;;;;;;10400456;28;20729;-74
2022/10/25 18:38:47;;;;;;;7.83;7.13;;;17.40;40.40;;;;;;10399252;28;20256;-74
2022/10/25 18:43:50;;;;;;;7.40;6.70;;;17.30;40.30;;;;;;10398402;28;20226;-74
2022/10/25 18:48:54;;;;;;;10.93;9.70;;;17.20;40.20;;;;;;10400180;28;20284;-74
2022/10/25 18:54:00;;;;;;;9.13;8.27;;;17.10;40.10;;;;;;10399736;28;20237;-74
2022/10/25 18:59:04;;;;;;;8.20;7.40;;;16.90;40.30;;;;;;10398850;28;20696;-73
2022/10/25 19:04:07;;;;;;;11.07;7.40;;;16.80;40.50;;;;;;10404505;28;20243;-74
2022/10/25 19:09:13;;;;;;;9.23;8.07;;;16.80;40.80;;;;;;10396683;28;20245;-73
2022/10/25 19:14:16;;;;;;;6.90;5.67;;;16.70;40.70;;;;;;10397195;28;20727;-73
2022/10/25 19:19:19;;;;;;;6.70;5.20;;;16.70;40.80;;;;;;10397223;28;20245;-73
2022/10/25 19:24:24;;;;;;;5.80;4.90;;;16.60;40.60;;;;;;10397906;28;20233;-73
2022/10/25 19:29:28;;;;;;;4.90;4.40;;;16.50;40.60;;;;;;10402089;28;20757;-74
2022/10/25 19:34:31;;;;;;;4.07;3.67;;;16.50;40.80;;;;;;10382448;28;20245;-73
2022/10/25 19:39:36;;;;;;;5.53;3.60;;;16.40;40.80;;;;;;10364945;28;20234;-73
2022/10/25 19:44:39;;;;;;;8.70;4.10;;;16.30;40.70;;;;;;10356714;28;20234;-73
2022/10/25 19:49:43;;;;;;;3.93;3.63;;;16.30;40.80;;;;;;10355435;28;20238;-74
2022/10/25 19:54:48;;;;;;;4.37;3.27;;;16.20;40.80;;;;;;10353910;28;20230;-74
2022/10/25 19:59:51;;;;;;;3.70;3.40;;;16.20;40.90;;;;;;10353595;28;20229;-73
2022/10/25 20:04:55;;;;;;;4.00;3.60;;;16.20;40.90;;;;;;10353578;28;20230;-73
2022/10/25 20:09:59;;;;;;;3.10;2.80;;;16.10;40.80;;;;;;10356193;28;20242;-73
2022/10/25 20:15:02;;;;;;;4.37;3.40;;;16.00;41.30;;;;;;10356423;28;20234;-74
2022/10/25 20:20:07;;;;;;;5.83;4.70;;;15.90;40.70;;;;;;10361725;28;20242;-73
2022/10/25 20:25:11;;;;;;;5.87;4.40;;;15.80;40.50;;;;;;10365610;28;20245;-74
2022/10/25 20:30:15;;;;;;;5.13;4.63;;;15.70;40.90;;;;;;10364928;28;20333;-73
2022/10/25 20:35:18;;;;;;;7.30;5.80;;;15.70;40.90;;;;;;10365516;28;20272;-73
2022/10/25 20:40:26;;;;;;;8.80;6.33;;;15.70;40.90;;;;;;10364986;28;20289;-74
2022/10/25 20:45:30;;;;;;;8.17;7.17;;;15.60;40.90;;;;;;10364710;28;20227;-73
2022/10/25 20:50:33;;;;;;;7.77;5.77;;;15.50;41.00;;;;;;10364380;28;20275;-75
2022/10/25 20:55:38;;;;;;;5.17;4.40;;;15.40;40.90;;;;;;10362917;28;20242;-74
2022/10/25 21:00:41;;;;;;;4.43;4.03;;;15.30;40.90;;;;;;10360800;28;20237;-74
2022/10/25 21:05:45;;;;;;;3.90;3.37;;;15.20;41.20;;;;;;10357679;28;20252;-74
2022/10/25 21:10:53;;;;;;;4.47;3.33;;;15.10;41.10;;;;;;10359623;28;20233;-73
2022/10/25 21:15:56;;;;;;;3.20;2.90;;;15.00;41.40;;;;;;10361463;28;20280;-74
2022/10/25 21:21:01;;;;;;;3.60;3.30;;;15.00;41.30;;;;;;10359703;28;20301;-74
2022/10/25 21:26:08;;;;;;;2.97;2.73;;;14.90;41.50;;;;;;10360739;28;20688;-73
2022/10/25 21:31:14;;;;;;;4.10;3.70;;;14.90;41.70;;;;;;10359455;28;20235;-73
2022/10/25 21:36:17;;;;;;;4.07;3.67;;;14.90;41.90;;;;;;10359331;28;20238;-74
2022/10/25 21:41:25;;;;;;;6.77;5.33;;;14.80;41.70;;;;;;10359337;28;20230;-73
2022/10/25 21:46:29;;;;;;;6.57;5.53;;;14.70;41.80;;;;;;10366654;28;20790;-73
2022/10/25 21:51:32;;;;;;;6.60;4.90;;;14.60;41.80;;;;;;10360693;28;20230;-74
2022/10/25 21:56:37;;;;;;;5.73;4.57;;;14.60;42.10;;;;;;10361078;28;20716;-73
2022/10/25 22:01:40;;;;;;;4.30;3.90;;;14.60;42.30;;;;;;10361175;28;20246;-74
2022/10/25 22:06:43;;;;;;;4.27;3.87;;;14.50;42.20;;;;;;10360129;28;20607;-73
2022/10/25 22:11:50;;;;;;;6.23;3.90;;;14.50;42.30;;;;;;10360783;28;20230;-74
2022/10/25 22:16:53;;;;;;;4.27;3.43;;;14.50;42.50;;;;;;10361341;28;20242;-74
2022/10/25 22:21:56;;;;;;;4.57;3.70;;;14.50;42.20;;;;;;10360030;28;20249;-74
2022/10/25 22:27:01;;;;;;;5.33;3.40;;;14.50;42.30;;;;;;10360059;28;20245;-74
2022/10/25 22:32:04;;;;;;;4.23;3.40;;;14.40;42.40;;;;;;10359400;28;20238;-74
2022/10/25 22:37:07;;;;;;;5.60;3.90;;;14.40;42.30;;;;;;10360096;28;20300;-74
2022/10/25 22:42:12;;;;;;;5.87;3.70;;;14.40;42.30;;;;;;10357608;28;20754;-74
2022/10/25 22:47:15;;;;;;;5.80;4.07;;;14.40;42.30;;;;;;10356125;28;20238;-73
2022/10/25 22:52:19;;;;;;;4.00;3.50;;;14.40;42.30;;;;;;10358803;28;20697;-74
2022/10/25 22:57:23;;;;;;;5.53;3.87;;;14.30;42.40;;;;;;10357621;28;20246;-74
2022/10/25 23:02:26;;;;;;;6.57;4.03;;;14.30;42.50;;;;;;10358522;28;20238;-74
2022/10/25 23:07:29;;;;;;;3.70;3.37;;;14.30;42.50;;;;;;10358161;28;20261;-73
2022/10/25 23:12:34;;;;;;;4.73;3.60;;;14.30;42.60;;;;;;10357228;28;20708;-74
2022/10/25 23:17:37;;;;;;;3.40;3.10;;;14.30;43.30;;;;;;10358240;28;20238;-74
2022/10/25 23:22:40;;;;;;;3.70;3.20;;;14.30;42.60;;;;;;10357248;28;20312;-74
2022/10/25 23:27:45;;;;;;;3.67;2.93;;;14.30;42.70;;;;;;10357701;28;20558;-74
2022/10/25 23:32:48;;;;;;;4.00;3.20;;;14.30;43.10;;;;;;10357475;28;20237;-74
2022/10/25 23:37:51;;;;;;;4.53;3.20;;;14.30;42.90;;;;;;10356541;28;20281;-73
2022/10/25 23:42:56;;;;;;;4.47;3.03;;;14.30;42.90;;;;;;10357608;28;20241;-73
2022/10/25 23:47:59;;;;;;;3.30;3.00;;;14.30;42.90;;;;;;10356288;28;20762;-74
2022/10/25 23:53:02;;;;;;;4.73;3.37;;;14.30;42.70;;;;;;10358117;28;20280;-73
2022/10/25 23:58:07;;;;;;;3.23;2.93;;;14.20;42.80;;;;;;10365214;28;20245;-74
